Warning: Javascript must be enabled to use all the features on this page!


Page Loading - Please Wait...

* We've detected you're using a mobile device. Find our Next Generation Station Page here.
Click to hideNews Bulletins

Peak Streamflow for the Nation

USGS 11169500 SARATOGA C A SARATOGA CA

Santa Clara County, California
Hydrologic Unit Code 18050003
Latitude  37°15'16", Longitude 122°02'18" NAD27
Drainage area 9.22  square miles
Gage datum 492.09 feet above NAVD88
Output formats
Table
Graph
Tab-separated file
peakfq (watstore) format
Reselect output format
Water
Year
Date Gage
Height
(feet)
Stream-
flow
(cfs)
1934 1934-01-01 3.13 314
1935 1935-01-04 2.90 254
1936 1936-02-21 2.80 268
1937 1937-02-13 3.80 910
1938 1938-02-02 3.71 611
1939 1939-03-08 2.41 110
1940 1940-02-27 5.352 2,540
1941 1941-04-04 3.78 608
1942 1942-01-24 3.80 620
1943 1943-01-21 4.80 1,650
1944 1944-03-04 2.68 175
1945 1945-02-01 4.15 898
1946 1945-12-21 3.13 287
1947 1946-11-22 2.46 100
1948 1948-04-29 2.63 134
1949 1949-03-11 3.08 293
1950 1950-02-05 2.95 222
1951 1950-11-18 4.07 826
1952 1952-01-12 4.63 1,240
1953 1952-12-07 3.58 494
1954 1954-01-17 2.98 232
1955 1955-02-26 2.50 107
1956 1955-12-22 6.40 2,730
1957 1957-02-24 3.42 225
1958 1958-04-02 4.95 772
1959 1959-02-16 4.75 683
1960 1960-02-08 3.24 178
1961 1960-12-01 3.00 129
1962 1962-02-14 4.12 432
1963 1963-01-31 5.68 1,160
1964 1964-01-20 3.84 338
1965 1965-01-05 4.40 535
1966 1965-12-28 2.98 151
1967 1967-03-16 4.52 583
1968 1968-01-30 4.48 598
1969 1969-01-26 4.002,6 1,120
1970 1970-03-04 4.75 406
1971 1970-11-28 4.38 255
1972 1971-12-27 3.91 127
1973 1973-01-16 6.03 1,580
1974 1974-03-01 4.50 345
1975 1975-03-07 4.61 398
1976 1976-02-29 3.00 25.0
1977 1977-03-15 3.29 50.0
1978 1978-01-14 6.69 2,580
1979 1979-01-15 4.40 307
1980 1980-02-19 6.89 1,610
1981 1981-01-27 4.19 161
1982 1982-01-04 7.06 1,720
1983 1983-01-24 7.03 1,700
1984 1983-12-25 4.74 426
1985 1984-11-27 3.97 177
1986 1986-02-17 7.00 1,680
1987 1987-02-13 3.96 174
1988 1988-01-17 3.64 109
1989 1989-03-11 3.60 102
1990 1990-02-16 3.70 119
1991 1991-03-04 4.49 336
1992 1992-02-12 4.91 493
1993 1993-01-13 5.30 665
1994 1994-02-19 3.71 121
1995 1995-03-09 6.28 1,200
1996 1996-02-21 4.92 539
1997 1997-01-01 5.85 944
1998 1998-02-03 7.80 2,210
1999 1999-02-09 4.47 383
2000 2000-02-14 4.71 502
2001 2001-03-04 3.75 162
2002 2001-12-02 4.25 310
2003 2002-11-08 3.59 131
2004 2004-02-25 5.03 620
2005 2004-12-30 4.00 188
2006 2005-12-31 6.31 1,120
2007 2007-02-10 3.40 74.0
2008 2008-01-04 5.98 936
2009 2009-02-15 4.50 297
2010 2010-01-20 5.42 666
2011 2011-03-24 4.49 334
2012 2012-04-13 3.61 112
2013 2012-12-02 5.73 809
2014 2014-02-28 3.02 23.0
2015 2014-12-11 4.40 275
2016 2016-03-05 5.34 633
2017 2017-02-20 6.85 1,440
2018 2018-03-22 3.74 137
2019 2019-01-16 6.46 1,200
2020 2019-12-07 3.73 150
2021 2021-01-28 3.64 132
2022 2021-12-13 4.51 346
2023 2023-01-14 6.40 1,240
?
  Peak Gage-Height Qualification Codes.